Time;durP1;ratioP1;P1;durP2;ratioP2;P2;SDS_P1;SDS_P2;PMS_P1;PMS_P2;Temp;Humidity;BMP_temperature;BMP_pressure;BME280_temperature;BME280_humidity;BME280_pressure;Samples;Min_cycle;Max_cycle;Signal;HPM_P1;HPM_P2
2022/07/04 00:00:33;;;;;;;10.40;2.97;;;13.30;99.90;;;;;;4873875;29;20213;-61
2022/07/04 00:03:01;;;;;;;2.60;2.40;;;13.30;99.90;;;;;;4870973;29;20211;-61
2022/07/04 00:05:29;;;;;;;3.53;2.60;;;13.20;99.90;;;;;;4877294;29;20670;-61
2022/07/04 00:07:58;;;;;;;3.07;2.67;;;13.20;99.90;;;;;;4869040;29;20231;-61
2022/07/04 00:10:27;;;;;;;4.53;2.43;;;13.20;99.90;;;;;;4875390;29;20226;-61
2022/07/04 00:12:57;;;;;;;5.37;2.60;;;13.10;99.90;;;;;;4876104;29;20226;-61
2022/07/04 00:15:26;;;;;;;5.97;2.60;;;13.10;99.90;;;;;;4875433;29;20663;-61
2022/07/04 00:17:54;;;;;;;2.73;2.47;;;13.00;99.90;;;;;;4875368;29;20301;-61
2022/07/04 00:20:23;;;;;;;4.43;2.13;;;13.00;99.90;;;;;;4876000;29;20243;-61
2022/07/04 00:22:51;;;;;;;3.07;2.20;;;13.00;99.90;;;;;;4872573;29;20287;-61
2022/07/04 00:25:20;;;;;;;2.67;2.33;;;13.00;99.90;;;;;;4865474;29;20200;-61
2022/07/04 00:27:48;;;;;;;2.50;2.30;;;13.00;99.90;;;;;;4873286;29;20219;-61
2022/07/04 00:30:18;;;;;;;5.53;2.40;;;13.00;99.90;;;;;;4873118;29;20671;-61
2022/07/04 00:32:46;;;;;;;4.57;2.73;;;12.90;99.90;;;;;;4873597;29;20218;-61
2022/07/04 00:35:15;;;;;;;6.23;2.60;;;12.90;99.90;;;;;;4875210;29;20219;-61
2022/07/04 00:37:43;;;;;;;2.60;2.40;;;12.90;99.90;;;;;;4877781;29;20281;-61
2022/07/04 00:40:12;;;;;;;4.00;2.27;;;12.90;99.90;;;;;;4873551;29;20681;-61
2022/07/04 00:42:41;;;;;;;2.27;2.07;;;12.90;99.90;;;;;;4871937;29;20667;-61
2022/07/04 00:45:10;;;;;;;2.97;2.20;;;12.90;99.90;;;;;;4873665;29;20222;-61
2022/07/04 00:47:40;;;;;;;3.77;2.23;;;12.90;99.90;;;;;;4875964;29;20202;-60
2022/07/04 00:50:09;;;;;;;4.00;2.00;;;12.90;99.90;;;;;;4879316;29;20270;-61
2022/07/04 00:52:37;;;;;;;5.33;2.73;;;12.90;99.90;;;;;;4872982;29;20276;-60
2022/07/04 00:55:06;;;;;;;2.57;2.47;;;12.90;99.90;;;;;;4871433;29;20231;-61
2022/07/04 00:57:35;;;;;;;2.50;2.30;;;12.90;99.90;;;;;;4874504;29;20237;-61
2022/07/04 01:00:04;;;;;;;6.23;2.70;;;12.80;99.90;;;;;;4873311;29;20600;-61
2022/07/04 01:02:34;;;;;;;2.57;2.37;;;12.80;99.90;;;;;;4871086;29;20650;-60
2022/07/04 01:05:04;;;;;;;2.90;2.60;;;12.80;99.90;;;;;;4873115;29;20278;-61
2022/07/04 01:07:32;;;;;;;5.63;2.30;;;12.70;99.90;;;;;;4873301;29;20310;-61
2022/07/04 01:10:00;;;;;;;2.50;2.30;;;12.70;99.90;;;;;;4870896;29;20285;-61
2022/07/04 01:12:30;;;;;;;2.30;2.20;;;12.60;99.90;;;;;;4876170;29;20233;-61
2022/07/04 01:14:58;;;;;;;6.83;2.40;;;12.50;99.90;;;;;;4868609;29;20217;-61
2022/07/04 01:17:26;;;;;;;3.13;2.60;;;12.50;99.90;;;;;;4876276;29;20198;-60
2022/07/04 01:19:55;;;;;;;2.90;2.70;;;12.50;99.90;;;;;;4873968;29;20661;-60
2022/07/04 01:22:25;;;;;;;4.57;2.80;;;12.50;99.90;;;;;;4876193;29;20215;-61
2022/07/04 01:24:53;;;;;;;2.47;2.33;;;12.50;99.90;;;;;;4876192;29;20203;-60
2022/07/04 01:27:22;;;;;;;3.70;2.70;;;12.50;99.90;;;;;;4875998;29;20207;-61
2022/07/04 01:29:50;;;;;;;5.13;2.83;;;12.40;99.90;;;;;;4875218;29;20191;-60
2022/07/04 01:32:19;;;;;;;4.80;2.80;;;12.40;99.90;;;;;;4869815;29;20343;-61
2022/07/04 01:34:48;;;;;;;5.00;3.00;;;12.40;99.90;;;;;;4872711;29;20222;-61
2022/07/04 01:37:17;;;;;;;5.80;2.90;;;12.40;99.90;;;;;;4874706;29;20221;-61
2022/07/04 01:39:47;;;;;;;4.23;3.00;;;12.30;99.90;;;;;;4872685;29;20202;-61
2022/07/04 01:42:15;;;;;;;4.37;3.57;;;12.30;99.90;;;;;;4877431;29;20194;-61
2022/07/04 01:44:44;;;;;;;5.60;3.30;;;12.30;99.90;;;;;;4873286;29;20250;-61
2022/07/04 01:47:13;;;;;;;5.13;2.80;;;12.30;99.90;;;;;;4869844;29;20198;-61
2022/07/04 01:49:41;;;;;;;7.97;3.00;;;12.30;99.90;;;;;;4865562;29;20758;-61
2022/07/04 01:52:09;;;;;;;4.50;2.93;;;12.30;99.90;;;;;;4871461;29;20202;-61
2022/07/04 01:54:38;;;;;;;6.37;3.00;;;12.20;99.90;;;;;;4871331;29;20223;-61
2022/07/04 01:57:08;;;;;;;9.03;3.17;;;12.20;99.90;;;;;;4870585;29;20235;-61
2022/07/04 02:02:22;;;;;;;3.20;2.70;;;12.20;99.90;;;;;;4871267;29;20698;-61
2022/07/04 02:04:51;;;;;;;4.00;2.83;;;12.20;99.90;;;;;;4876886;29;20230;-61
2022/07/04 02:07:19;;;;;;;3.10;2.70;;;12.10;99.90;;;;;;4873034;29;20222;-61
2022/07/04 02:09:48;;;;;;;3.87;2.80;;;12.20;99.90;;;;;;4873567;29;20282;-61
2022/07/04 02:15:05;;;;;;;3.83;3.00;;;12.10;99.90;;;;;;4872328;29;20245;-61
2022/07/04 02:17:33;;;;;;;3.53;3.07;;;12.10;99.90;;;;;;4867954;29;20310;-61
2022/07/04 02:20:02;;;;;;;3.90;3.03;;;12.00;99.90;;;;;;4874749;29;20249;-61
2022/07/04 02:22:31;;;;;;;3.23;3.03;;;12.00;99.90;;;;;;4867214;29;20207;-61
2022/07/04 02:25:00;;;;;;;4.70;3.13;;;12.00;99.90;;;;;;4876717;29;20203;-61
2022/07/04 02:27:29;;;;;;;3.70;3.47;;;12.00;99.90;;;;;;4875887;29;20227;-61
2022/07/04 02:29:58;;;;;;;3.70;3.37;;;12.00;99.90;;;;;;4869795;29;20203;-61
2022/07/04 02:32:26;;;;;;;4.20;3.20;;;11.90;99.90;;;;;;4870149;29;20215;-61
2022/07/04 02:34:54;;;;;;;5.23;3.50;;;11.90;99.90;;;;;;4873585;29;20259;-61
2022/07/04 02:37:23;;;;;;;3.67;3.30;;;12.00;99.90;;;;;;4875471;29;20310;-60
2022/07/04 02:39:51;;;;;;;4.10;3.37;;;12.00;99.90;;;;;;4874852;29;20199;-61
2022/07/04 02:42:20;;;;;;;5.57;3.23;;;12.00;99.90;;;;;;4876242;29;20239;-61
2022/07/04 02:44:50;;;;;;;3.77;3.33;;;11.90;99.90;;;;;;4871828;29;20203;-61
2022/07/04 02:47:18;;;;;;;5.67;3.03;;;11.90;99.90;;;;;;4870005;29;20215;-61
2022/07/04 02:49:47;;;;;;;4.37;2.90;;;11.90;99.90;;;;;;4875213;29;20287;-60
2022/07/04 02:52:15;;;;;;;3.70;2.90;;;11.90;99.90;;;;;;4868481;29;20282;-61
2022/07/04 02:54:45;;;;;;;3.30;3.03;;;11.90;99.90;;;;;;4867795;29;20210;-61
2022/07/04 02:57:14;;;;;;;2.70;2.50;;;11.90;99.90;;;;;;4879658;29;20206;-60
2022/07/04 02:59:43;;;;;;;4.77;3.03;;;11.90;99.90;;;;;;4873654;29;20258;-61
2022/07/04 03:02:12;;;;;;;3.67;3.37;;;11.80;99.90;;;;;;4874221;29;20199;-61
2022/07/04 03:04:41;;;;;;;5.30;3.20;;;11.80;99.90;;;;;;4875957;29;20200;-60
2022/07/04 03:07:09;;;;;;;4.83;3.33;;;11.80;99.90;;;;;;4870460;29;20199;-60
2022/07/04 03:09:38;;;;;;;3.57;2.87;;;11.70;99.90;;;;;;4873759;29;20198;-61
2022/07/04 03:12:07;;;;;;;5.67;3.10;;;11.70;99.90;;;;;;4873132;29;20226;-61
2022/07/04 03:14:36;;;;;;;5.47;3.27;;;11.70;99.90;;;;;;4878529;29;20209;-61
2022/07/04 03:17:04;;;;;;;8.53;3.07;;;11.70;99.90;;;;;;4860579;29;20310;-61
2022/07/04 03:19:34;;;;;;;4.97;3.30;;;11.60;99.90;;;;;;4883864;29;20222;-61
2022/07/04 03:22:02;;;;;;;4.30;3.20;;;11.60;99.90;;;;;;4879895;29;20234;-61
2022/07/04 03:24:31;;;;;;;3.37;2.97;;;11.60;99.90;;;;;;4876567;29;20226;-61
2022/07/04 03:26:59;;;;;;;5.40;3.10;;;11.60;99.90;;;;;;4879071;29;20203;-60
2022/07/04 03:29:27;;;;;;;6.67;3.13;;;11.60;99.90;;;;;;4873010;29;20192;-61
2022/07/04 03:31:56;;;;;;;5.53;3.03;;;11.50;99.90;;;;;;4876177;29;20277;-60
2022/07/04 03:34:24;;;;;;;6.40;3.03;;;11.50;99.90;;;;;;4877637;29;20209;-60
2022/07/04 03:36:54;;;;;;;3.10;2.90;;;11.60;99.90;;;;;;4873153;29;20302;-60
2022/07/04 03:39:22;;;;;;;6.20;3.13;;;11.50;99.90;;;;;;4875699;29;20720;-61
2022/07/04 03:41:51;;;;;;;5.63;2.90;;;11.60;99.90;;;;;;4877668;29;20274;-60
2022/07/04 03:44:19;;;;;;;3.13;3.00;;;11.60;99.90;;;;;;4879421;29;20634;-60
2022/07/04 03:46:48;;;;;;;8.63;3.33;;;11.60;99.90;;;;;;4873738;29;20286;-60
2022/07/04 03:49:16;;;;;;;3.30;3.03;;;11.70;99.90;;;;;;4877868;29;20655;-60
2022/07/04 03:51:45;;;;;;;5.40;3.20;;;11.70;99.90;;;;;;4876218;29;20217;-60
2022/07/04 03:54:14;;;;;;;4.80;2.80;;;11.80;99.90;;;;;;4877857;29;20226;-60
2022/07/04 03:56:45;;;;;;;4.07;2.67;;;11.90;99.90;;;;;;4872656;29;20215;-60
2022/07/04 03:59:13;;;;;;;5.97;3.53;;;11.90;99.90;;;;;;4873678;29;20203;-61
2022/07/04 04:01:42;;;;;;;7.80;2.87;;;12.00;99.90;;;;;;4874727;29;20218;-61
2022/07/04 04:06:58;;;;;;;8.47;3.33;;;12.10;99.90;;;;;;4875800;29;20865;-60
2022/07/04 04:09:27;;;;;;;5.33;3.20;;;12.10;99.90;;;;;;4874399;29;20750;-61
2022/07/04 04:11:56;;;;;;;6.83;3.40;;;12.20;99.90;;;;;;4875932;29;20595;-60
2022/07/04 04:14:26;;;;;;;6.10;3.03;;;12.20;99.90;;;;;;4876593;29;20206;-60
2022/07/04 04:16:54;;;;;;;10.17;3.30;;;12.20;99.90;;;;;;4879399;29;20223;-60
2022/07/04 04:19:22;;;;;;;5.73;2.80;;;12.30;99.90;;;;;;4876595;29;20809;-60
2022/07/04 04:21:51;;;;;;;3.40;2.97;;;12.30;99.90;;;;;;4873049;29;20243;-60
2022/07/04 04:24:19;;;;;;;5.47;3.10;;;12.40;99.90;;;;;;4870390;29;20206;-60
2022/07/04 04:26:49;;;;;;;7.07;3.40;;;12.40;99.90;;;;;;4877377;29;20206;-61
2022/07/04 04:29:18;;;;;;;7.10;3.37;;;12.50;99.90;;;;;;4876055;29;20206;-61
2022/07/04 04:31:47;;;;;;;7.27;3.70;;;12.50;99.90;;;;;;4872197;29;20271;-60
2022/07/04 04:34:15;;;;;;;4.77;3.30;;;12.60;99.90;;;;;;4879371;29;20290;-60
2022/07/04 04:36:43;;;;;;;5.80;3.10;;;12.60;99.90;;;;;;4873109;29;20274;-61
2022/07/04 04:39:13;;;;;;;6.97;3.60;;;12.60;99.90;;;;;;4874024;29;20199;-61
2022/07/04 04:41:41;;;;;;;6.53;3.20;;;12.70;99.90;;;;;;4868227;29;20191;-61
2022/07/04 04:44:11;;;;;;;5.40;3.30;;;12.80;99.90;;;;;;4873109;29;20955;-61
2022/07/04 04:46:39;;;;;;;6.40;3.00;;;12.80;99.90;;;;;;4873754;29;20259;-61
2022/07/04 04:49:08;;;;;;;4.47;2.90;;;13.00;99.90;;;;;;4875628;29;20191;-61
2022/07/04 04:51:38;;;;;;;6.00;3.27;;;13.20;99.90;;;;;;4871245;29;20219;-61
2022/07/04 04:54:06;;;;;;;8.77;3.30;;;13.30;99.90;;;;;;4873940;29;20198;-61
2022/07/04 04:56:35;;;;;;;6.40;3.23;;;13.40;99.90;;;;;;4875970;29;20226;-61
2022/07/04 04:59:04;;;;;;;4.10;3.07;;;13.60;99.90;;;;;;4874648;29;20227;-61
2022/07/04 05:01:33;;;;;;;7.57;3.10;;;13.70;99.90;;;;;;4870267;29;20671;-62
2022/07/04 05:04:09;;;;;;;6.57;3.17;;;13.80;99.90;;;;;;4873578;29;20210;-61
2022/07/04 05:06:38;;;;;;;6.07;3.20;;;14.00;99.90;;;;;;4872615;29;20234;-61
2022/07/04 05:09:06;;;;;;;7.90;3.50;;;14.00;99.90;;;;;;4853698;29;20811;-62
2022/07/04 05:11:34;;;;;;;10.00;3.73;;;14.10;99.90;;;;;;4867990;29;20287;-60
2022/07/04 05:14:03;;;;;;;8.57;3.40;;;14.20;99.90;;;;;;4883690;29;20203;-62
2022/07/04 05:16:33;;;;;;;5.03;3.40;;;14.30;99.90;;;;;;4876195;29;20226;-61
2022/07/04 05:19:02;;;;;;;6.77;3.53;;;14.50;99.90;;;;;;4875824;29;20230;-61
2022/07/04 05:21:30;;;;;;;6.13;3.63;;;14.60;99.90;;;;;;4876608;29;20271;-61
2022/07/04 05:23:59;;;;;;;5.60;3.37;;;14.70;99.90;;;;;;4883123;29;20654;-61
2022/07/04 05:26:30;;;;;;;7.10;2.83;;;14.90;99.90;;;;;;4872846;29;20655;-61
2022/07/04 05:28:58;;;;;;;7.90;3.40;;;15.20;99.90;;;;;;4872860;29;20205;-62
2022/07/04 05:31:26;;;;;;;8.00;3.40;;;15.30;99.90;;;;;;4874178;29;20202;-61
2022/07/04 05:33:56;;;;;;;7.10;3.03;;;15.40;99.90;;;;;;4873924;29;20195;-61
2022/07/04 05:36:25;;;;;;;5.33;3.10;;;15.40;99.90;;;;;;4877045;29;20222;-61
2022/07/04 05:38:57;;;;;;;7.23;2.97;;;15.60;99.90;;;;;;4874862;29;20220;-61
2022/07/04 05:41:27;;;;;;;3.83;3.00;;;15.70;99.90;;;;;;4878240;29;20259;-62
2022/07/04 05:43:55;;;;;;;7.80;2.83;;;15.80;99.90;;;;;;4870746;29;20728;-62
2022/07/04 05:46:26;;;;;;;3.47;3.10;;;15.80;99.90;;;;;;4868154;29;20211;-61
2022/07/04 05:48:56;;;;;;;9.23;3.20;;;15.80;99.90;;;;;;4872734;29;20663;-61
2022/07/04 05:51:24;;;;;;;6.03;3.60;;;15.90;99.90;;;;;;4877152;29;20203;-62
2022/07/04 05:53:53;;;;;;;8.30;3.47;;;15.90;99.90;;;;;;4878984;29;20217;-61
2022/07/04 05:56:23;;;;;;;7.50;3.30;;;15.90;99.90;;;;;;4879215;29;20299;-61
2022/07/04 05:58:52;;;;;;;6.70;3.47;;;16.00;99.90;;;;;;4874339;29;20698;-61
2022/07/04 06:01:21;;;;;;;7.30;3.93;;;16.20;99.90;;;;;;4876283;29;20689;-61
2022/07/04 06:03:50;;;;;;;13.67;3.57;;;16.30;99.90;;;;;;4877458;29;20210;-62
2022/07/04 06:06:19;;;;;;;7.37;3.70;;;16.50;99.90;;;;;;4871828;29;20214;-61
2022/07/04 06:08:48;;;;;;;5.30;3.33;;;16.80;99.90;;;;;;4870288;29;20285;-61
2022/07/04 06:11:17;;;;;;;8.47;3.30;;;17.00;99.90;;;;;;4873732;29;20220;-62
2022/07/04 06:13:46;;;;;;;5.17;3.40;;;17.10;99.90;;;;;;4870854;29;20644;-62
2022/07/04 06:16:15;;;;;;;7.70;3.67;;;17.10;99.90;;;;;;4873367;29;20270;-61
2022/07/04 06:18:44;;;;;;;7.87;4.00;;;17.20;99.90;;;;;;4868908;29;20219;-62
2022/07/04 06:21:12;;;;;;;11.03;4.13;;;17.20;99.90;;;;;;4876860;29;20303;-62
2022/07/04 06:23:42;;;;;;;8.83;4.30;;;17.20;99.90;;;;;;4874953;29;20214;-62
2022/07/04 06:26:10;;;;;;;10.90;4.20;;;17.40;99.90;;;;;;4874765;29;20282;-62
2022/07/04 06:28:39;;;;;;;7.47;4.03;;;17.60;99.90;;;;;;4872544;29;20215;-62
2022/07/04 06:31:16;;;;;;;9.50;4.63;;;17.80;99.90;;;;;;4877223;29;20211;-62
2022/07/04 06:36:30;;;;;;;13.27;4.87;;;18.10;99.90;;;;;;4872790;29;20702;-62
2022/07/04 06:39:00;;;;;;;12.97;5.07;;;18.20;99.90;;;;;;4878805;29;20281;-62
2022/07/04 06:41:29;;;;;;;12.40;4.83;;;18.70;99.90;;;;;;4875317;29;20211;-62
2022/07/04 06:43:57;;;;;;;14.77;5.10;;;18.90;99.90;;;;;;4877959;29;20212;-62
2022/07/04 06:46:25;;;;;;;12.10;4.97;;;19.00;99.90;;;;;;4878800;29;20211;-62
2022/07/04 06:48:54;;;;;;;14.57;5.33;;;19.20;99.90;;;;;;4877377;29;20238;-62
2022/07/04 06:51:23;;;;;;;12.50;5.07;;;19.50;99.90;;;;;;4878215;29;20264;-63
2022/07/04 06:53:51;;;;;;;11.40;5.10;;;19.50;99.90;;;;;;4877168;29;20626;-62
2022/07/04 06:56:21;;;;;;;11.17;5.23;;;19.40;99.90;;;;;;4878711;29;20615;-63
2022/07/04 06:58:50;;;;;;;12.07;5.53;;;19.80;99.90;;;;;;4886928;29;20272;-62
2022/07/04 07:01:18;;;;;;;12.50;5.07;;;19.80;99.90;;;;;;4871999;29;20553;-63
2022/07/04 07:03:47;;;;;;;10.33;5.30;;;19.90;99.90;;;;;;4879190;29;20296;-63
2022/07/04 07:06:17;;;;;;;9.33;4.77;;;20.20;99.90;;;;;;4872183;29;20199;-63
2022/07/04 07:08:45;;;;;;;17.43;5.73;;;20.60;99.90;;;;;;4875591;29;20686;-62
2022/07/04 07:11:14;;;;;;;8.07;4.43;;;20.50;99.90;;;;;;4878678;29;20209;-63
2022/07/04 07:13:45;;;;;;;11.87;5.17;;;20.90;99.90;;;;;;4879225;29;20211;-63
2022/07/04 07:16:14;;;;;;;12.07;4.73;;;21.20;99.90;;;;;;4876208;29;20250;-63
2022/07/04 07:18:43;;;;;;;9.77;5.17;;;21.40;99.90;;;;;;4878230;29;20280;-63
2022/07/04 07:21:11;;;;;;;14.93;5.47;;;21.40;99.90;;;;;;4869637;29;20242;-62
2022/07/04 07:23:40;;;;;;;10.50;5.27;;;21.50;99.90;;;;;;4875757;29;20222;-63
2022/07/04 07:26:10;;;;;;;10.23;5.20;;;21.80;99.90;;;;;;4882710;29;20202;-62
2022/07/04 07:28:38;;;;;;;13.98;5.22;;;22.10;99.90;;;;;;4875620;29;20201;-62
2022/07/04 07:31:08;;;;;;;9.63;5.55;;;23.00;99.90;;;;;;4872710;29;20222;-62
2022/07/04 07:33:36;;;;;;;9.73;5.13;;;23.00;99.90;;;;;;4878531;29;20230;-63
2022/07/04 07:36:05;;;;;;;7.88;5.32;;;22.90;99.90;;;;;;4879473;29;20207;-62
2022/07/04 07:38:35;;;;;;;9.02;5.53;;;22.70;99.90;;;;;;4881916;29;20270;-63
2022/07/04 07:41:04;;;;;;;10.80;5.45;;;22.90;99.90;;;;;;4875511;29;20213;-63
2022/07/04 07:43:32;;;;;;;10.25;4.35;;;22.90;99.90;;;;;;4878801;29;20212;-62
2022/07/04 07:46:01;;;;;;;10.00;4.65;;;23.20;99.90;;;;;;4877426;29;20319;-62
2022/07/04 07:48:31;;;;;;;9.68;4.30;;;24.30;99.90;;;;;;4872595;29;20563;-63
2022/07/04 07:51:00;;;;;;;5.35;3.90;;;24.10;99.90;;;;;;4876134;29;20649;-62
2022/07/04 07:53:28;;;;;;;6.32;3.90;;;24.60;99.90;;;;;;4873907;29;20529;-62
2022/07/04 07:55:57;;;;;;;6.97;3.50;;;24.80;99.90;;;;;;4874515;29;20209;-62
2022/07/04 07:58:25;;;;;;;7.65;3.40;;;25.50;99.90;;;;;;4878036;29;20209;-63
2022/07/04 08:00:54;;;;;;;7.65;3.47;;;26.20;99.90;;;;;;4868718;29;20225;-63
2022/07/04 08:06:12;;;;;;;6.97;3.28;;;25.70;99.90;;;;;;4875362;29;20564;-62
2022/07/04 08:08:41;;;;;;;6.63;2.95;;;26.10;99.90;;;;;;4875979;29;20286;-62
2022/07/04 08:11:10;;;;;;;6.57;2.85;;;26.40;99.90;;;;;;4871865;29;20209;-63
2022/07/04 08:13:39;;;;;;;4.72;2.58;;;26.90;99.90;;;;;;4874043;29;20285;-62
2022/07/04 08:16:08;;;;;;;4.68;2.20;;;27.60;99.90;;;;;;4875592;29;20326;-62
2022/07/04 08:18:37;;;;;;;5.28;2.60;;;27.40;99.90;;;;;;4871813;29;20291;-62
2022/07/04 08:21:06;;;;;;;7.72;2.65;;;27.20;99.90;;;;;;4876469;29;20246;-62
2022/07/04 08:23:41;;;;;;;4.78;2.80;;;27.40;99.90;;;;;;4872500;29;20209;-62
2022/07/04 08:26:30;;;;;;;4.38;2.50;;;27.10;99.90;;;;;;4874109;29;20281;-62
2022/07/04 08:28:59;;;;;;;3.30;2.40;;;27.10;99.90;;;;;;4871326;29;20204;-62
2022/07/04 08:31:28;;;;;;;4.82;2.10;;;27.40;99.90;;;;;;4870964;29;20235;-62
2022/07/04 08:34:17;;;;;;;5.90;2.50;;;27.70;99.90;;;;;;4889509;29;20572;-63
2022/07/04 08:36:45;;;;;;;2.65;2.10;;;27.70;99.90;;;;;;4872533;29;20203;-63
2022/07/04 08:39:16;;;;;;;4.72;2.30;;;27.60;99.90;;;;;;4878130;29;20214;-62
2022/07/04 08:41:45;;;;;;;5.15;2.35;;;28.00;99.90;;;;;;4872314;29;20236;-62
2022/07/04 08:44:13;;;;;;;5.32;2.22;;;27.70;99.90;;;;;;4879628;29;20227;-63
2022/07/04 08:46:43;;;;;;;5.43;2.22;;;28.00;99.90;;;;;;4874713;29;20386;-62
2022/07/04 08:49:18;;;;;;;4.25;2.47;;;28.30;99.90;;;;;;4893011;29;20226;-62
2022/07/04 08:51:54;;;;;;;5.40;2.72;;;28.20;99.90;;;;;;4879123;29;20205;-62
2022/07/04 08:59:58;;;;;;;5.82;2.50;;;28.60;99.90;;;;;;4876304;29;20314;-63
2022/07/04 09:02:29;;;;;;;3.72;2.42;;;28.50;99.90;;;;;;4871833;29;20202;-62
2022/07/04 09:05:00;;;;;;;5.97;2.15;;;27.90;99.90;;;;;;4875011;29;20289;-62
2022/07/04 09:07:29;;;;;;;6.70;2.47;;;27.40;99.90;;;;;;4885063;29;20664;-62
2022/07/04 09:10:04;;;;;;;4.75;2.33;;;26.40;99.90;;;;;;4874017;29;20222;-62
2022/07/04 09:12:33;;;;;;;5.55;2.35;;;26.00;99.90;;;;;;4869891;29;20202;-62
2022/07/04 09:15:21;;;;;;;6.82;2.30;;;26.50;99.90;;;;;;4875992;29;20206;-62
2022/07/04 09:17:50;;;;;;;4.05;2.30;;;27.80;99.90;;;;;;4873242;29;20227;-62
2022/07/04 09:20:21;;;;;;;3.67;2.13;;;28.30;99.90;;;;;;4869631;29;20242;-62
2022/07/04 09:22:51;;;;;;;10.00;2.40;;;29.00;99.90;;;;;;4875396;29;20205;-63
2022/07/04 09:25:22;;;;;;;6.85;2.30;;;29.20;99.90;;;;;;4871349;29;20212;-62
2022/07/04 09:27:52;;;;;;;4.57;2.15;;;28.50;99.90;;;;;;4871704;29;20208;-62
2022/07/04 09:30:22;;;;;;;3.22;1.92;;;28.20;99.90;;;;;;4875188;29;20187;-63
2022/07/04 09:32:59;;;;;;;3.90;2.00;;;28.50;99.90;;;;;;4875620;29;20539;-63
2022/07/04 09:35:29;;;;;;;4.40;2.33;;;29.30;99.90;;;;;;4876593;29;20648;-63
2022/07/04 09:38:04;;;;;;;3.97;1.80;;;29.70;99.90;;;;;;4872950;29;20574;-63
2022/07/04 09:41:24;;;;;;;1.63;1.50;;;30.30;99.90;;;;;;4879010;29;20834;-62
2022/07/04 09:43:25;;;;;;;6.38;2.17;;;30.30;99.90;;;;;;4875954;29;20198;-63
2022/07/04 09:45:56;;;;;;;12.45;3.20;;;28.80;99.90;;;;;;4875238;29;20565;-63
2022/07/04 09:48:25;;;;;;;3.95;1.98;;;27.40;99.90;;;;;;4879313;29;20585;-62
2022/07/04 09:50:54;;;;;;;3.08;2.20;;;27.10;99.90;;;;;;4876613;29;20201;-62
2022/07/04 09:53:28;;;;;;;7.13;2.28;;;26.90;99.90;;;;;;4881765;29;20198;-63
2022/07/04 09:55:58;;;;;;;5.22;1.98;;;27.30;99.90;;;;;;4873990;29;20731;-62
2022/07/04 09:58:26;;;;;;;2.10;1.85;;;27.50;99.90;;;;;;4871683;29;20719;-62
2022/07/04 10:01:00;;;;;;;5.38;2.03;;;27.20;99.90;;;;;;4870872;29;20219;-62
2022/07/04 10:03:32;;;;;;;7.55;2.20;;;27.70;99.90;;;;;;4872534;29;20634;-63
2022/07/04 10:06:06;;;;;;;5.18;2.10;;;28.40;99.90;;;;;;4870167;29;20291;-63
2022/07/04 10:08:35;;;;;;;4.03;1.95;;;29.00;99.90;;;;;;4874362;29;20599;-63
2022/07/04 10:11:07;;;;;;;3.72;2.17;;;28.80;99.90;;;;;;4879491;29;20217;-63
2022/07/04 10:13:39;;;;;;;3.70;1.90;;;29.00;99.90;;;;;;4875164;29;20223;-63
2022/07/04 10:16:07;;;;;;;4.72;2.33;;;29.30;99.90;;;;;;4882575;29;20214;-62
2022/07/04 10:18:37;;;;;;;4.32;2.35;;;28.80;99.90;;;;;;4877852;29;20275;-62
2022/07/04 10:21:08;;;;;;;3.90;2.20;;;28.20;99.90;;;;;;4881250;29;20269;-62
2022/07/04 10:23:38;;;;;;;6.18;2.17;;;27.30;99.90;;;;;;4881417;29;20205;-63
2022/07/04 10:26:08;;;;;;;7.13;2.75;;;27.20;99.90;;;;;;4883115;29;20210;-62
2022/07/04 10:28:38;;;;;;;5.55;2.33;;;28.00;99.90;;;;;;4876468;29;20213;-63
2022/07/04 10:31:07;;;;;;;2.65;2.10;;;28.60;99.90;;;;;;4883425;29;20222;-62
2022/07/04 10:33:38;;;;;;;3.03;2.30;;;29.40;99.90;;;;;;4878470;29;20639;-63
2022/07/04 10:36:16;;;;;;;3.72;1.77;;;29.70;99.90;;;;;;4881577;29;20257;-63
2022/07/04 10:38:49;;;;;;;6.25;1.92;;;29.90;99.90;;;;;;4876595;29;20260;-62
2022/07/04 10:41:21;;;;;;;4.57;2.15;;;30.10;99.90;;;;;;4879272;29;20259;-63
2022/07/04 10:43:55;;;;;;;4.82;2.28;;;29.80;99.90;;;;;;4878495;29;20663;-62
2022/07/04 10:46:47;;;;;;;3.90;2.10;;;29.10;99.90;;;;;;4881434;29;20261;-62
2022/07/04 10:49:25;;;;;;;6.15;2.40;;;28.10;99.90;;;;;;4882946;29;20325;-62
2022/07/04 10:51:56;;;;;;;5.43;2.20;;;27.20;99.90;;;;;;4880858;29;20212;-63
2022/07/04 10:54:31;;;;;;;6.53;2.40;;;26.00;99.90;;;;;;4877528;29;20190;-62
2022/07/04 10:57:11;;;;;;;3.67;2.10;;;25.30;99.90;;;;;;4883846;29;20289;-63
2022/07/04 10:59:41;;;;;;;6.20;2.00;;;26.20;99.90;;;;;;4882088;29;20279;-62
2022/07/04 11:02:25;;;;;;;6.32;2.05;;;27.00;99.90;;;;;;4882053;29;20579;-62
2022/07/04 11:05:00;;;;;;;2.10;1.90;;;27.50;99.90;;;;;;4879851;29;20237;-61
2022/07/04 11:07:58;;;;;;;2.58;1.88;;;26.90;99.90;;;;;;4877881;29;20223;-62
2022/07/04 11:10:27;;;;;;;3.30;2.03;;;26.10;99.90;;;;;;4877233;29;20191;-62
2022/07/04 11:13:17;;;;;;;4.13;1.90;;;26.00;99.90;;;;;;4879413;29;20193;-62
2022/07/04 11:16:06;;;;;;;4.35;2.05;;;26.60;99.90;;;;;;4871140;29;20210;-62
2022/07/04 11:18:42;;;;;;;4.18;1.98;;;27.30;99.90;;;;;;4879970;29;20234;-62
2022/07/04 11:21:19;;;;;;;1.50;1.40;;;27.80;99.90;;;;;;4876774;29;20255;-62
2022/07/04 11:23:54;;;;;;;4.20;1.50;;;28.20;99.90;;;;;;4876098;29;20281;-62
2022/07/04 11:26:23;;;;;;;1.80;1.70;;;28.10;99.90;;;;;;4877074;29;20195;-62
2022/07/04 11:28:55;;;;;;;2.53;1.65;;;28.20;99.90;;;;;;4872036;29;20240;-62
2022/07/04 11:31:39;;;;;;;2.72;1.48;;;28.10;99.90;;;;;;4876072;29;20213;-62
2022/07/04 11:34:08;;;;;;;2.30;1.50;;;27.60;99.90;;;;;;4879158;29;20218;-62
2022/07/04 11:36:38;;;;;;;2.22;1.80;;;27.50;99.90;;;;;;4877477;29;20542;-62
2022/07/04 11:39:08;;;;;;;2.03;1.50;;;27.70;99.90;;;;;;4877706;29;20238;-62
2022/07/04 11:47:16;;;;;;;1.30;1.30;;;28.20;99.90;;;;;;4875302;29;20197;-62
2022/07/04 11:49:46;;;;;;;1.70;1.60;;;28.60;99.90;;;;;;4877039;29;20204;-62
2022/07/04 11:52:16;;;;;;;2.17;1.67;;;28.60;99.90;;;;;;4880666;29;20221;-62
2022/07/04 11:55:04;;;;;;;1.35;1.20;;;28.70;99.90;;;;;;4868222;29;20205;-62
2022/07/04 11:57:36;;;;;;;2.40;1.40;;;28.80;99.90;;;;;;4880095;29;20197;-62
2022/07/04 12:00:08;;;;;;;2.40;1.67;;;28.60;99.90;;;;;;4880082;29;21649;-63
2022/07/04 12:02:44;;;;;;;2.03;1.40;;;28.60;99.90;;;;;;4879796;29;20231;-62
2022/07/04 12:05:14;;;;;;;2.70;1.38;;;28.40;99.90;;;;;;4877879;29;20231;-62
2022/07/04 12:07:45;;;;;;;4.78;1.60;;;27.70;99.90;;;;;;4880058;29;20191;-62
2022/07/04 12:10:33;;;;;;;3.33;1.57;;;27.40;99.90;;;;;;4871185;29;20533;-62
2022/07/04 12:13:06;;;;;;;3.57;1.60;;;26.90;99.90;;;;;;4874505;29;20191;-62
2022/07/04 12:15:40;;;;;;;1.57;1.37;;;26.50;99.90;;;;;;4878537;29;20287;-62
2022/07/04 12:18:17;;;;;;;1.60;1.50;;;26.40;99.90;;;;;;4869054;29;20218;-62
2022/07/04 12:20:47;;;;;;;2.53;1.70;;;26.00;99.90;;;;;;4884088;29;20238;-62
2022/07/04 12:23:15;;;;;;;2.90;1.90;;;26.00;99.90;;;;;;4872246;29;20777;-62
2022/07/04 12:25:46;;;;;;;2.80;1.73;;;26.20;99.90;;;;;;4869486;29;20207;-62
2022/07/04 12:28:16;;;;;;;3.13;1.70;;;26.10;99.90;;;;;;4876490;29;20294;-62
2022/07/04 12:30:53;;;;;;;3.17;1.93;;;26.40;99.90;;;;;;4869783;29;20288;-62
2022/07/04 12:33:24;;;;;;;4.53;1.70;;;26.40;99.90;;;;;;4871636;29;20201;-62
2022/07/04 12:35:53;;;;;;;2.10;1.87;;;26.30;99.90;;;;;;4871917;29;20241;-62
2022/07/04 12:38:33;;;;;;;3.20;1.67;;;26.10;99.90;;;;;;4872416;29;20231;-62
2022/07/04 12:41:03;;;;;;;2.07;1.57;;;26.00;99.90;;;;;;4867783;29;20624;-62
2022/07/04 12:43:46;;;;;;;2.50;1.90;;;26.10;99.90;;;;;;4878987;29;20276;-63
2022/07/04 12:46:27;;;;;;;4.37;1.93;;;25.80;99.90;;;;;;4871031;29;20205;-62
2022/07/04 12:48:57;;;;;;;1.87;1.57;;;25.80;99.90;;;;;;4870864;29;20528;-62
2022/07/04 12:51:27;;;;;;;4.40;2.27;;;26.00;99.90;;;;;;4868344;29;20304;-62
2022/07/04 12:53:57;;;;;;;2.23;1.57;;;26.30;99.90;;;;;;4871450;29;20570;-62
2022/07/04 12:56:31;;;;;;;2.07;1.80;;;26.50;99.90;;;;;;4874653;29;20206;-61
2022/07/04 12:59:01;;;;;;;2.70;1.80;;;26.70;99.90;;;;;;4876939;29;20202;-62
2022/07/04 13:01:31;;;;;;;2.23;1.73;;;26.90;99.90;;;;;;4872312;29;20689;-62
2022/07/04 13:04:01;;;;;;;3.17;2.00;;;26.90;99.90;;;;;;4867621;29;20226;-61
2022/07/04 13:06:30;;;;;;;5.07;1.90;;;27.00;99.90;;;;;;4871389;29;20206;-62
2022/07/04 13:08:58;;;;;;;3.23;1.83;;;27.00;99.90;;;;;;4875732;29;20978;-62
2022/07/04 13:14:13;;;;;;;2.23;1.40;;;26.80;99.90;;;;;;4871982;29;20622;-61
2022/07/04 13:16:43;;;;;;;6.00;1.87;;;26.50;99.90;;;;;;4871435;29;20207;-62
2022/07/04 13:19:11;;;;;;;2.10;1.63;;;26.20;99.90;;;;;;4874590;29;20226;-62
2022/07/04 13:21:40;;;;;;;2.63;1.70;;;26.00;99.90;;;;;;4875026;29;20244;-61
2022/07/04 13:24:09;;;;;;;2.13;1.70;;;26.10;99.90;;;;;;4884717;29;20214;-63
2022/07/04 13:26:37;;;;;;;1.80;1.60;;;26.40;99.90;;;;;;4868127;29;20209;-63
2022/07/04 13:29:06;;;;;;;3.00;1.80;;;26.40;99.90;;;;;;4875246;29;20210;-61